Time;durP1;ratioP1;P1;durP2;ratioP2;P2;SDS_P1;SDS_P2;PMS_P1;PMS_P2;Temp;Humidity;BMP_temperature;BMP_pressure;BME280_temperature;BME280_humidity;BME280_pressure;Samples;Min_cycle;Max_cycle;Signal;HPM_P1;HPM_P2
2022/09/05 00:02:02;;;;;;;;;2.00;2.00;;;;;24.39;48.14;101187.69;5084446;27;45382;-70
2022/09/05 00:04:52;;;;;;;;;2.33;2.33;;;;;24.31;48.08;101177.34;5094977;27;45525;-68
2022/09/05 00:07:39;;;;;;;;;1.25;1.25;;;;;24.19;48.72;101176.13;5095722;27;45556;-75
2022/09/05 00:10:26;;;;;;;;;2.00;2.00;;;;;24.10;48.74;101176.56;5095101;27;46214;-73
2022/09/05 00:12:58;;;;;;;;;2.33;2.33;;;;;24.01;48.87;101167.16;5094929;27;45788;-71
2022/09/05 00:16:02;;;;;;;;;2.67;2.00;;;;;24.00;49.15;101199.38;5097424;27;45513;-75
2022/09/05 00:18:41;;;;;;;;;3.00;2.33;;;;;23.84;49.19;101188.50;5095936;27;45529;-73
2022/09/05 00:21:07;;;;;;;;;5.33;3.00;;;;;23.99;49.01;101203.84;5095748;27;45481;-73
2022/09/05 00:23:53;;;;;;;;;3.00;3.00;;;;;23.98;48.90;101201.25;5083733;27;45297;-75
2022/09/05 00:26:46;;;;;;;;;2.00;2.00;;;;;23.90;48.77;101193.56;5080271;27;45365;-73
2022/09/05 00:29:11;;;;;;;;;2.00;1.00;;;;;23.89;48.87;101190.03;5081890;27;45346;-75
2022/09/05 00:31:52;;;;;;;;;2.33;2.33;;;;;23.88;48.60;101182.06;5095227;27;45386;-75
2022/09/05 00:34:58;;;;;;;;;2.00;2.00;;;;;23.91;48.40;101173.91;5081636;27;45369;-75
2022/09/05 00:37:51;;;;;;;;;2.33;1.00;;;;;23.97;47.94;101178.13;5095129;27;45350;-76
2022/09/05 00:40:25;;;;;;;;;2.00;2.00;;;;;23.93;48.45;101177.38;5063562;27;45518;-71
2022/09/05 00:43:13;;;;;;;;;2.00;2.00;;;;;23.89;48.41;101163.28;5061948;27;45832;-76
2022/09/05 00:46:21;;;;;;;;;2.00;2.00;;;;;23.90;48.14;101170.38;5098577;27;45311;-74
2022/09/05 00:48:52;;;;;;;;;3.00;3.00;;;;;23.93;47.98;101161.31;5085227;27;45350;-75
2022/09/05 00:51:42;;;;;;;;;3.33;3.00;;;;;23.89;48.13;101173.09;5079051;27;45718;-74
2022/09/05 00:54:23;;;;;;;;;4.00;3.00;;;;;23.89;47.72;101159.72;5098680;27;46241;-77
2022/09/05 00:57:29;;;;;;;;;3.33;2.00;;;;;24.00;47.44;101172.59;5091876;27;45490;-75
2022/09/05 01:00:13;;;;;;;;;2.00;2.00;;;;;24.10;47.43;101171.22;5097922;27;45433;-74
2022/09/05 01:03:16;;;;;;;;;1.00;1.00;;;;;24.22;47.33;101169.78;5096946;27;45492;-74
2022/09/05 01:06:04;;;;;;;;;1.00;1.00;;;;;24.37;46.72;101165.47;5067352;27;46352;-74
2022/09/05 01:08:45;;;;;;;;;2.00;2.00;;;;;24.46;46.75;101171.28;5076518;27;45294;-78
2022/09/05 01:11:36;;;;;;;;;2.33;2.33;;;;;24.47;46.57;101153.44;5077638;27;45405;-74
2022/09/05 01:14:16;;;;;;;;;3.00;3.00;;;;;24.48;46.34;101133.72;5078307;27;45346;-76
2022/09/05 01:17:23;;;;;;;;;3.00;3.00;;;;;24.39;46.67;101129.66;5095982;27;45875;-74
2022/09/05 01:20:27;;;;;;;;;3.00;3.00;;;;;24.37;46.64;101131.56;4996234;28;45459;-74
2022/09/05 01:23:28;;;;;;;;;2.33;2.33;;;;;24.28;46.37;101122.16;5012962;28;45821;-71
2022/09/05 01:26:12;;;;;;;;;4.00;3.00;;;;;24.47;46.34;101161.47;5077879;27;45985;-71
2022/09/05 01:28:56;;;;;;;;;2.00;2.00;;;;;24.56;46.34;101182.44;5077370;27;47865;-71
2022/09/05 01:31:43;;;;;;;;;3.00;2.00;;;;;24.65;45.73;101221.25;5099820;27;45315;-75
2022/09/05 01:34:48;;;;;;;;;2.67;2.67;;;;;24.69;45.93;101217.50;5083114;27;45362;-72
2022/09/05 01:37:19;;;;;;;;;4.00;2.33;;;;;24.71;48.71;101251.28;5096541;27;45688;-71
2022/09/05 01:40:18;;;;;;;;;3.00;3.00;;;;;24.53;47.69;101159.31;5096379;27;46183;-72
2022/09/05 01:43:15;;;;;;;;;4.33;2.67;;;;;24.14;53.34;101170.16;5083693;27;45323;-72
2022/09/05 01:45:59;;;;;;;;;5.67;3.33;;;;;23.71;54.98;101142.72;5094242;27;45347;-71
2022/09/05 01:48:55;;;;;;;;;4.00;2.00;;;;;23.79;56.31;101108.47;5062733;27;45963;-71
2022/09/05 01:51:58;;;;;;;;;1.00;1.00;;;;;23.94;55.17;101112.22;5056664;28;46909;-72
2022/09/05 01:54:45;;;;;;;;;3.00;3.00;;;;;23.62;59.06;101121.75;5068400;27;45392;-71
2022/09/05 01:57:31;;;;;;;;;5.00;3.00;;;;;23.36;55.22;101163.03;5082551;27;45794;-72
2022/09/05 02:00:17;;;;;;;;;3.00;3.00;;;;;23.25;55.87;101179.53;5077961;27;45515;-71
2022/09/05 02:03:00;;;;;;;;;4.67;3.67;;;;;23.14;55.71;101169.31;5056654;27;45696;-72
2022/09/05 02:05:45;;;;;;;;;2.67;2.67;;;;;23.06;55.56;101171.44;5056891;28;45357;-72
2022/09/05 02:08:14;;;;;;;;;3.33;3.33;;;;;23.00;56.35;101145.00;5059604;28;45418;-72
2022/09/05 02:11:09;;;;;;;;;2.33;2.33;;;;;22.89;59.47;101144.56;5091949;27;45604;-72
2022/09/05 02:13:35;;;;;;;;;2.33;2.33;;;;;22.77;55.79;101138.81;5075315;27;45448;-72
2022/09/05 02:16:14;;;;;;;;;4.00;4.00;;;;;22.80;57.62;101154.72;5076489;27;45454;-71
2022/09/05 02:19:07;;;;;;;;;5.00;3.67;;;;;22.78;56.67;101150.34;5076547;27;45481;-72
2022/09/05 02:21:34;;;;;;;;;3.00;3.00;;;;;22.78;56.07;101145.91;5057210;28;45520;-72
2022/09/05 02:24:12;;;;;;;;;4.00;4.00;;;;;22.83;56.13;101153.72;5060456;28;46885;-73
2022/09/05 02:27:02;;;;;;;;;3.00;3.00;;;;;22.83;56.48;101159.06;5077146;27;45434;-73
2022/09/05 02:29:50;;;;;;;;;3.00;3.00;;;;;22.88;56.66;101164.22;5056258;27;45476;-72
2022/09/05 02:32:43;;;;;;;;;5.33;5.00;;;;;22.84;57.02;101156.31;5075083;27;45436;-74
2022/09/05 02:35:17;;;;;;;;;4.00;4.00;;;;;22.80;56.63;101154.72;5075451;27;46376;-73
2022/09/05 02:38:00;;;;;;;;;4.00;4.00;;;;;22.72;56.51;101153.28;5074823;27;45494;-73
2022/09/05 02:40:36;;;;;;;;;4.00;4.00;;;;;22.63;56.78;101150.06;5081098;27;45533;-73
2022/09/05 02:43:20;;;;;;;;;3.33;3.33;;;;;22.53;57.26;101148.72;5081557;27;45429;-72
2022/09/05 02:45:58;;;;;;;;;5.00;4.00;;;;;22.51;57.19;101149.72;5086747;27;45690;-73
2022/09/05 02:48:52;;;;;;;;;3.33;3.33;;;;;22.50;57.58;101151.53;5077491;27;45549;-73
2022/09/05 02:51:41;;;;;;;;;4.67;4.00;;;;;22.43;58.03;101148.22;5086536;27;45649;-71
2022/09/05 02:54:10;;;;;;;;;6.00;4.33;;;;;22.38;58.02;101128.88;5078663;27;45405;-72
2022/09/05 02:56:54;;;;;;;;;6.00;4.33;;;;;22.44;58.05;101163.28;5056437;28;47414;-72
2022/09/05 02:59:50;;;;;;;;;4.67;4.67;;;;;22.38;57.88;101150.22;5078509;27;45434;-72
2022/09/05 03:02:36;;;;;;;;;4.67;4.00;;;;;22.40;57.21;101158.13;5078540;27;45472;-72
2022/09/05 03:05:16;;;;;;;;;4.00;4.00;;;;;22.56;57.40;101167.25;5075823;27;45417;-72
2022/09/05 03:07:59;;;;;;;;;3.67;2.00;;;;;22.64;57.71;101174.97;5075303;27;46464;-72
2022/09/05 03:10:40;;;;;;;;;2.00;2.00;;;;;22.72;57.56;101170.19;5058494;28;45687;-72
2022/09/05 03:13:05;;;;;;;;;3.33;3.33;;;;;22.72;57.40;101172.84;5058715;28;45783;-73
2022/09/05 03:16:06;;;;;;;;;3.33;3.33;;;;;22.65;56.98;101176.69;5067911;27;45476;-72
2022/09/05 03:18:41;;;;;;;;;8.67;7.67;;;;;22.78;57.18;101182.38;5096015;27;45464;-72
2022/09/05 03:21:15;;;;;;;;;9.00;8.67;;;;;22.51;57.79;101136.38;5080627;27;45394;-71
2022/09/05 03:23:52;;;;;;;;;11.33;7.33;;;;;22.90;57.01;101189.03;5078650;27;45418;-72
2022/09/05 03:26:55;;;;;;;;;28.67;25.67;;;;;22.90;58.18;101189.03;5065160;27;45497;-72
2022/09/05 03:29:50;;;;;;;;;40.67;30.67;;;;;22.92;58.34;101188.03;5055675;28;46528;-72
2022/09/05 03:32:33;;;;;;;;;24.33;17.33;;;;;22.99;57.00;101200.25;5059326;28;45327;-73
2022/09/05 03:35:37;;;;;;;;;9.67;7.67;;;;;23.06;58.09;101211.50;5059022;27;45495;-70
2022/09/05 03:38:35;;;;;;;;;6.33;6.33;;;;;22.96;57.44;101188.78;5074503;27;45932;-72
2022/09/05 03:41:23;;;;;;;;;6.33;6.00;;;;;23.12;57.21;101208.59;5065198;27;45679;-72
2022/09/05 03:44:25;;;;;;;;;3.33;3.33;;;;;23.16;57.33;101204.88;5075643;27;45354;-72
2022/09/05 03:47:18;;;;;;;;;3.00;3.00;;;;;23.17;57.33;101201.25;5079086;27;45359;-72
2022/09/05 03:50:07;;;;;;;;;3.00;3.00;;;;;22.95;57.70;101160.34;5084331;27;45500;-72
2022/09/05 03:52:54;;;;;;;;;4.00;2.00;;;;;23.03;57.72;101198.28;5077159;27;47959;-73
2022/09/05 03:56:06;;;;;;;;;3.00;2.67;;;;;22.99;57.98;101194.91;5094292;27;45527;-73
2022/09/05 03:59:09;;;;;;;;;2.00;0.00;;;;;22.98;58.05;101189.59;5022232;28;45447;-72
2022/09/05 04:01:43;;;;;;;;;4.00;3.33;;;;;23.04;57.76;101186.66;5060998;27;45780;-72
2022/09/05 04:04:28;;;;;;;;;2.67;2.00;;;;;23.05;57.97;101186.59;5088565;27;46250;-72
2022/09/05 04:07:01;;;;;;;;;2.00;2.00;;;;;23.06;58.70;101183.03;5094550;27;45688;-72
2022/09/05 04:09:47;;;;;;;;;2.00;2.00;;;;;23.10;58.01;101205.13;5094237;27;45489;-72
2022/09/05 04:12:34;;;;;;;;;3.33;2.00;;;;;23.16;58.28;101198.63;5094602;27;45868;-71
2022/09/05 04:15:10;;;;;;;;;4.67;4.67;;;;;23.15;58.61;101202.25;5096973;27;45499;-72
2022/09/05 04:17:47;;;;;;;;;4.67;4.00;;;;;22.96;58.41;101164.72;5100940;27;45517;-72
2022/09/05 04:20:31;;;;;;;;;3.00;3.00;;;;;23.16;58.80;101196.84;5101706;27;45535;-71
2022/09/05 04:22:59;;;;;;;;;4.33;3.00;;;;;23.14;58.87;101201.38;5098129;27;45356;-72
2022/09/05 04:25:56;;;;;;;;;0.00;0.00;;;;;23.01;59.21;101202.81;5097578;27;46406;-72
2022/09/05 04:28:46;;;;;;;;;3.00;3.00;;;;;22.91;59.08;101199.66;5097461;27;45990;-71
2022/09/05 04:31:43;;;;;;;;;4.00;4.00;;;;;22.93;58.51;101194.25;5097556;27;45309;-72
2022/09/05 04:34:21;;;;;;;;;6.33;4.33;;;;;22.91;58.59;101196.13;5087547;27;45405;-73
2022/09/05 04:37:00;;;;;;;;;3.33;3.33;;;;;22.88;58.23;101188.25;5082258;27;46795;-71
2022/09/05 04:39:26;;;;;;;;;4.67;4.00;;;;;22.80;58.39;101172.50;5100165;27;45480;-70
2022/09/05 04:42:17;;;;;;;;;5.00;3.33;;;;;22.91;58.04;101202.31;5097299;27;45540;-72
2022/09/05 04:44:59;;;;;;;;;4.33;4.33;;;;;22.83;58.01;101191.97;5097464;27;45430;-71
2022/09/05 04:47:49;;;;;;;;;3.33;3.33;;;;;22.83;57.83;101204.47;5080625;27;45502;-71
2022/09/05 04:50:23;;;;;;;;;3.00;3.00;;;;;22.95;58.07;101216.44;5091468;27;45833;-72
2022/09/05 04:53:35;;;;;;;;;3.00;3.00;;;;;22.73;58.23;101189.72;5080451;27;45332;-72
2022/09/05 04:56:11;;;;;;;;;4.00;4.00;;;;;23.02;57.85;101228.63;5079055;27;45536;-73
2022/09/05 04:58:49;;;;;;;;;3.67;3.33;;;;;23.08;57.76;101229.22;5096682;27;45634;-70
2022/09/05 05:01:40;;;;;;;;;2.67;2.67;;;;;23.10;58.35;101236.31;5096924;27;45389;-70
2022/09/05 05:04:15;;;;;;;;;4.33;4.33;;;;;22.92;57.82;101209.41;5097390;27;45323;-71
2022/09/05 05:07:21;;;;;;;;;4.00;4.00;;;;;22.97;58.16;101218.09;5097694;27;45687;-72
2022/09/05 05:09:55;;;;;;;;;3.00;3.00;;;;;23.04;57.86;101219.63;5050726;27;46280;-72
2022/09/05 05:12:38;;;;;;;;;5.00;5.00;;;;;22.94;57.74;101209.34;5078701;27;45791;-72
2022/09/05 05:15:12;;;;;;;;;3.00;3.00;;;;;22.99;57.48;101210.94;5076020;27;45374;-72
2022/09/05 05:17:51;;;;;;;;;5.00;5.00;;;;;23.08;57.46;101226.53;5079874;27;45755;-74
2022/09/05 05:20:30;;;;;;;;;7.00;5.00;;;;;23.01;57.93;101221.53;5079412;27;45359;-71
2022/09/05 05:23:01;;;;;;;;;6.00;5.00;;;;;22.95;58.55;101225.31;5080777;27;45437;-70
2022/09/05 05:25:31;;;;;;;;;5.00;5.00;;;;;22.81;58.68;101201.84;5074050;27;45469;-71
2022/09/05 05:28:11;;;;;;;;;6.00;6.00;;;;;22.85;58.20;101227.50;5091439;27;45487;-73
2022/09/05 05:30:39;;;;;;;;;5.33;4.00;;;;;22.84;57.94;101208.84;5086961;27;45510;-71
2022/09/05 05:33:36;;;;;;;;;4.67;4.67;;;;;22.92;58.14;101221.88;5095621;27;45698;-72
2022/09/05 05:36:06;;;;;;;;;7.33;5.33;;;;;22.98;58.13;101226.97;5079332;27;45498;-72
2022/09/05 05:38:42;;;;;;;;;7.00;6.00;;;;;22.95;57.91;101221.78;5080494;27;45392;-71
2022/09/05 05:41:32;;;;;;;;;5.00;5.00;;;;;22.89;58.68;101216.66;5061385;28;47569;-71
2022/09/05 05:43:58;;;;;;;;;6.33;6.00;;;;;22.95;58.88;101222.63;5086278;27;45463;-73
2022/09/05 05:46:55;;;;;;;;;7.00;7.00;;;;;22.94;58.84;101241.38;5062212;28;45430;-71
2022/09/05 05:49:52;;;;;;;;;7.00;7.00;;;;;22.96;58.21;101215.47;5063329;27;45690;-73
2022/09/05 05:52:43;;;;;;;;;9.00;7.67;;;;;23.01;58.46;101242.91;5089432;27;46703;-71
2022/09/05 05:55:50;;;;;;;;;6.33;6.33;;;;;23.07;58.07;101243.53;5073425;27;45724;-72
2022/09/05 05:58:37;;;;;;;;;7.33;6.67;;;;;23.13;57.71;101255.75;5087158;27;45545;-74
2022/09/05 06:01:38;;;;;;;;;7.33;5.33;;;;;23.15;57.96;101248.53;5079109;27;45455;-71
2022/09/05 06:04:41;;;;;;;;;5.00;5.00;;;;;23.20;58.19;101264.38;5047955;27;47837;-75
2022/09/05 06:07:43;;;;;;;;;6.33;6.33;;;;;23.15;56.94;101277.06;5076206;27;45374;-72
2022/09/05 06:10:24;;;;;;;;;7.67;7.00;;;;;23.26;56.05;101275.66;5076827;27;45443;-72
2022/09/05 06:13:10;;;;;;;;;8.33;7.00;;;;;23.23;56.49;101280.25;5077518;27;45309;-73
2022/09/05 06:16:29;;;;;;;;;6.67;5.33;;;;;23.24;55.62;101274.88;5082194;27;45370;-71
2022/09/05 06:19:09;;;;;;;;;8.00;6.33;;;;;23.23;56.13;101277.59;4991012;28;45416;-70
2022/09/05 06:22:12;;;;;;;;;9.33;7.00;;;;;23.31;55.66;101277.28;5087353;27;45703;-71
2022/09/05 06:24:47;;;;;;;;;6.33;6.33;;;;;23.20;54.39;101291.09;5062992;27;46177;-72
2022/09/05 06:27:42;;;;;;;;;5.00;5.00;;;;;23.12;54.72;101287.88;5089070;27;45587;-71
2022/09/05 06:30:09;;;;;;;;;10.33;7.67;;;;;23.13;54.79;101297.63;5074104;27;45576;-71
2022/09/05 06:32:45;;;;;;;;;5.00;5.00;;;;;23.16;54.94;101297.50;5095159;27;45626;-74
2022/09/05 06:35:32;;;;;;;;;6.00;6.00;;;;;23.25;54.64;101300.69;5087296;27;45469;-72
2022/09/05 06:38:03;;;;;;;;;7.00;7.00;;;;;23.34;54.26;101296.72;5087851;27;45347;-71
2022/09/05 06:41:03;;;;;;;;;6.33;5.33;;;;;23.41;54.38;101294.66;5093239;27;45586;-71
2022/09/05 06:43:39;;;;;;;;;4.00;4.00;;;;;23.61;53.60;101321.41;5072309;27;45247;-73
2022/09/05 06:46:21;;;;;;;;;6.00;5.67;;;;;23.70;53.64;101334.41;5093623;27;45486;-71
2022/09/05 06:49:00;;;;;;;;;7.00;7.00;;;;;23.71;53.55;101335.25;5088981;27;46948;-71
2022/09/05 06:51:52;;;;;;;;;6.00;5.00;;;;;23.87;53.25;101324.78;5071922;27;45657;-71
2022/09/05 06:54:31;;;;;;;;;5.00;5.00;;;;;24.09;52.30;101354.13;5073767;27;45624;-70
2022/09/05 06:57:03;;;;;;;;;5.33;5.33;;;;;24.15;52.63;101363.69;5093984;27;45697;-71
2022/09/05 06:59:38;;;;;;;;;6.67;5.33;;;;;24.33;52.10;101377.13;5075580;27;46166;-72
2022/09/05 07:02:19;;;;;;;;;7.00;5.00;;;;;24.40;51.90;101379.53;5077396;27;45418;-71
2022/09/05 07:05:01;;;;;;;;;5.33;5.00;;;;;24.64;51.63;101366.84;5067746;28;46349;-71
2022/09/05 07:07:46;;;;;;;;;6.00;5.00;;;;;24.89;50.67;101358.50;5054398;27;45637;-72
2022/09/05 07:10:37;;;;;;;;;4.00;3.67;;;;;25.17;50.28;101341.94;5085575;27;46431;-72
2022/09/05 07:13:15;;;;;;;;;6.25;6.00;;;;;25.42;50.06;101364.91;5091973;27;45545;-71
2022/09/05 07:16:15;;;;;;;;;6.00;6.00;;;;;25.57;49.02;101377.50;5078597;27;45536;-71
2022/09/05 07:18:58;;;;;;;;;4.33;3.67;;;;;25.70;48.82;101362.53;5081736;27;45992;-71
2022/09/05 07:21:51;;;;;;;;;6.00;6.00;;;;;25.67;48.88;101372.53;5080521;27;45591;-70
2022/09/05 07:24:26;;;;;;;;;7.00;6.00;;;;;25.52;48.80;101374.19;5079522;27;45530;-70
2022/09/05 07:26:57;;;;;;;;;6.00;6.00;;;;;25.72;48.82;101381.22;5071740;28;45673;-71
2022/09/05 07:29:30;;;;;;;;;4.00;4.00;;;;;25.94;48.13;101355.06;5094584;27;45746;-72
2022/09/05 07:32:01;;;;;;;;;4.33;4.33;;;;;26.15;47.82;101363.78;5081555;27;45586;-71
2022/09/05 07:34:47;;;;;;;;;4.33;3.67;;;;;26.15;47.64;101360.22;5080758;27;45612;-71
2022/09/05 07:37:16;;;;;;;;;5.33;5.33;;;;;26.21;47.78;101360.75;5057138;27;45900;-70
2022/09/05 07:40:09;;;;;;;;;5.50;5.50;;;;;25.93;47.64;101347.06;5090057;27;45358;-71
2022/09/05 07:43:10;;;;;;;;;7.00;7.00;;;;;25.57;48.10;101350.69;5064437;27;45833;-71
2022/09/05 07:45:47;;;;;;;;;6.33;5.67;;;;;25.37;49.39;101354.41;5073873;27;45425;-72
2022/09/05 07:48:28;;;;;;;;;6.00;6.00;;;;;25.41;49.58;101350.59;5054767;28;45452;-71
2022/09/05 07:51:01;;;;;;;;;5.25;5.00;;;;;25.46;49.43;101345.88;5091840;27;45444;-71
2022/09/05 07:53:29;;;;;;;;;8.00;6.00;;;;;25.31;49.01;101309.97;5095107;27;46214;-71
2022/09/05 07:56:01;;;;;;;;;5.25;5.00;;;;;25.58;48.91;101341.72;5076682;27;45842;-70
2022/09/05 07:58:50;;;;;;;;;5.00;4.25;;;;;25.69;48.31;101309.81;5094920;27;45507;-71
2022/09/05 08:01:21;;;;;;;;;4.50;4.50;;;;;26.12;47.52;101344.28;5077639;27;45786;-71
2022/09/05 08:03:53;;;;;;;;;5.50;5.50;;;;;26.30;46.96;101334.38;5089610;27;45582;-71
2022/09/05 08:06:25;;;;;;;;;5.00;4.00;;;;;26.46;46.89;101332.59;5089560;27;45467;-71
2022/09/05 08:09:16;;;;;;;;;7.25;6.00;;;;;26.61;46.55;101328.22;5095192;27;45382;-69
2022/09/05 08:11:43;;;;;;;;;5.50;5.50;;;;;26.52;46.21;101309.88;5096030;27;45871;-72
2022/09/05 08:14:43;;;;;;;;;7.67;6.33;;;;;26.55;45.84;101316.00;5095210;27;45717;-73
2022/09/05 08:17:22;;;;;;;;;5.75;5.75;;;;;26.61;45.82;101318.31;5059315;27;45816;-70
2022/09/05 08:20:06;;;;;;;;;7.00;6.00;;;;;26.68;46.09;101318.84;5094408;27;45449;-71
2022/09/05 08:22:45;;;;;;;;;7.25;6.00;;;;;26.79;45.87;101305.69;5092696;27;45364;-77
2022/09/05 08:25:29;;;;;;;;;5.00;5.00;;;;;27.01;45.57;101312.50;5091045;27;48161;-75
2022/09/05 08:28:05;;;;;;;;;4.50;4.50;;;;;27.28;45.16;101327.03;5062054;27;45452;-76
2022/09/05 08:30:58;;;;;;;;;8.75;7.25;;;;;27.26;44.53;101318.22;5061446;28;45528;-73
2022/09/05 08:33:31;;;;;;;;;5.25;5.25;;;;;27.18;44.71;101322.28;5083906;27;45470;-73
2022/09/05 08:36:40;;;;;;;;;4.00;4.00;;;;;27.04;44.99;101302.44;5087732;27;45413;-72
2022/09/05 08:39:10;;;;;;;;;6.00;5.00;;;;;27.24;43.91;101330.00;5056711;28;45430;-71
2022/09/05 08:41:35;;;;;;;;;5.50;5.50;;;;;27.22;43.67;101322.03;5087624;27;45379;-72
2022/09/05 08:44:26;;;;;;;;;4.25;4.25;;;;;27.01;43.59;101274.88;5074435;27;45608;-72
2022/09/05 08:47:05;;;;;;;;;6.50;6.50;;;;;27.47;43.50;101318.75;5073922;27;45885;-73
2022/09/05 08:49:35;;;;;;;;;7.00;5.50;;;;;27.64;43.16;101306.09;5080517;27;45447;-73
2022/09/05 08:52:08;;;;;;;;;5.00;5.00;;;;;27.86;42.10;101319.19;5094040;27;45541;-75
2022/09/05 08:54:56;;;;;;;;;6.75;6.00;;;;;27.92;42.80;101324.16;5080083;27;45424;-71
2022/09/05 08:57:58;;;;;;;;;5.00;5.00;;;;;28.06;42.88;101329.56;5093041;27;45855;-74
2022/09/05 09:00:31;;;;;;;;;4.00;4.00;;;;;28.22;42.88;101334.00;5094937;27;45543;-73
2022/09/05 09:03:03;;;;;;;;;4.25;4.25;;;;;28.32;42.35;101338.69;5099495;27;45485;-75
2022/09/05 09:05:58;;;;;;;;;4.50;4.25;;;;;28.16;41.72;101332.53;5079456;27;45558;-75
2022/09/05 09:08:48;;;;;;;;;6.50;6.50;;;;;28.25;42.19;101366.97;5082265;27;46811;-74
2022/09/05 09:11:17;;;;;;;;;10.25;7.25;;;;;28.21;42.40;101349.28;5097036;27;45379;-72
2022/09/05 09:13:54;;;;;;;;;7.50;7.50;;;;;28.19;42.90;101340.44;5101295;27;45344;-74
2022/09/05 09:16:33;;;;;;;;;7.00;6.00;;;;;28.02;43.26;101319.94;5078483;27;45645;-73
2022/09/05 09:19:10;;;;;;;;;4.50;4.50;;;;;28.03;42.91;101315.44;5098042;27;45355;-72
2022/09/05 09:21:38;;;;;;;;;5.25;5.25;;;;;28.19;42.26;101342.25;5097416;27;45401;-70
2022/09/05 09:24:07;;;;;;;;;5.25;5.25;;;;;28.27;43.68;101356.97;5096550;27;45467;-69
2022/09/05 09:26:41;;;;;;;;;5.75;5.25;;;;;28.20;42.92;101328.69;5099905;27;45546;-70
2022/09/05 09:29:11;;;;;;;;;6.25;5.50;;;;;28.43;41.84;101329.09;5096245;27;45350;-72
2022/09/05 09:31:51;;;;;;;;;5.75;4.00;;;;;28.74;40.88;101346.88;5097798;27;45348;-71
2022/09/05 09:34:31;;;;;;;;;6.25;6.00;;;;;28.90;40.37;101344.03;5078463;27;45785;-71
2022/09/05 09:37:00;;;;;;;;;4.00;4.00;;;;;28.83;40.23;101337.31;5081058;27;45412;-71
2022/09/05 09:39:36;;;;;;;;;2.25;2.25;;;;;28.57;38.96;101323.72;5077398;27;46914;-71
2022/09/05 09:42:23;;;;;;;;;2.50;2.50;;;;;28.58;39.23;101332.66;5077263;27;45441;-72
2022/09/05 09:45:23;;;;;;;;;3.50;3.50;;;;;28.47;39.10;101327.94;5095889;27;45401;-71
2022/09/05 09:48:09;;;;;;;;;2.50;2.50;;;;;28.62;39.11;101326.97;5079680;27;45841;-71
2022/09/05 09:51:03;;;;;;;;;3.00;2.25;;;;;28.74;39.13;101328.88;5088662;27;45501;-72
2022/09/05 09:54:02;;;;;;;;;3.50;3.00;;;;;28.86;38.60;101320.94;5082670;27;45652;-70
2022/09/05 09:56:49;;;;;;;;;3.00;3.00;;;;;28.89;38.32;101312.66;5064716;27;45897;-68
2022/09/05 09:59:30;;;;;;;;;3.25;3.25;;;;;28.98;38.16;101320.13;5095610;27;45420;-67
2022/09/05 10:01:58;;;;;;;;;4.25;4.25;;;;;29.11;37.43;101295.94;5077332;27;47832;-69
2022/09/05 10:04:57;;;;;;;;;5.00;5.00;;;;;29.22;37.16;101295.22;5095752;27;45529;-69
2022/09/05 10:07:48;;;;;;;;;3.25;3.25;;;;;29.30;36.41;101292.84;5077083;27;45827;-68
2022/09/05 10:10:50;;;;;;;;;2.25;2.25;;;;;29.32;35.86;101278.28;5084355;27;45571;-68
2022/09/05 10:13:36;;;;;;;;;3.00;3.00;;;;;29.36;36.27;101274.41;5095032;27;46309;-69
2022/09/05 10:16:11;;;;;;;;;2.80;2.80;;;;;29.44;36.60;101271.19;5095336;27;45438;-68
2022/09/05 10:19:04;;;;;;;;;4.00;4.00;;;;;29.53;36.60;101261.59;5077141;27;45488;-68
2022/09/05 10:21:57;;;;;;;;;2.50;2.25;;;;;29.63;35.81;101270.75;5079553;27;45527;-67
2022/09/05 10:24:57;;;;;;;;;3.25;3.25;;;;;29.70;35.17;101271.25;5088538;27;45468;-67
2022/09/05 10:27:37;;;;;;;;;3.00;3.00;;;;;29.73;35.53;101269.22;5070349;27;45699;-67
2022/09/05 10:30:09;;;;;;;;;3.50;2.00;;;;;29.95;34.84;101264.97;5077212;27;45662;-68
2022/09/05 10:32:56;;;;;;;;;2.00;2.00;;;;;30.09;34.36;101266.66;5095626;27;45469;-69
2022/09/05 10:35:34;;;;;;;;;3.00;3.00;;;;;30.16;34.39;101259.84;5095225;27;45294;-67
2022/09/05 10:38:02;;;;;;;;;1.60;1.60;;;;;30.24;32.39;101268.28;5099189;27;45417;-66
2022/09/05 10:40:32;;;;;;;;;2.80;2.20;;;;;30.32;34.27;101263.19;5097467;27;45877;-69
2022/09/05 10:43:09;;;;;;;;;2.25;2.25;;;;;30.47;33.76;101268.44;5095518;27;45361;-72
2022/09/05 10:45:56;;;;;;;;;3.00;3.00;;;;;30.70;33.23;101248.69;5094011;27;46434;-70
2022/09/05 10:48:57;;;;;;;;;2.60;2.60;;;;;30.96;33.05;101251.31;5083590;27;45510;-68
2022/09/05 10:51:38;;;;;;;;;4.00;4.00;;;;;31.16;33.26;101237.13;5064522;27;45387;-72
2022/09/05 10:54:16;;;;;;;;;3.75;3.75;;;;;31.07;32.18;101240.53;5095784;27;45453;-70
2022/09/05 10:57:05;;;;;;;;;3.25;3.00;;;;;31.18;32.44;101242.41;5093726;27;47072;-71
2022/09/05 11:00:06;;;;;;;;;3.00;3.00;;;;;31.36;32.57;101250.97;5062046;27;45563;-73
2022/09/05 11:02:35;;;;;;;;;2.00;2.00;;;;;31.32;32.32;101233.22;5094620;27;45523;-70
2022/09/05 11:05:24;;;;;;;;;2.50;2.50;;;;;31.43;31.93;101241.41;5095691;27;45397;-77
2022/09/05 11:08:01;;;;;;;;;4.00;4.00;;;;;31.59;30.87;101239.22;5076393;27;46779;-76
2022/09/05 11:10:46;;;;;;;;;3.60;3.20;;;;;31.64;31.03;101247.84;5087109;27;46564;-76
2022/09/05 11:13:31;;;;;;;;;3.00;3.00;;;;;31.50;31.19;101239.94;5056784;27;45487;-75
2022/09/05 11:16:02;;;;;;;;;6.00;4.50;;;;;31.77;32.57;101236.88;5076905;27;45659;-69
2022/09/05 11:18:57;;;;;;;;;3.75;3.75;;;;;32.00;31.61;101239.66;5078545;27;46801;-74
2022/09/05 11:21:51;;;;;;;;;3.60;3.00;;;;;32.20;30.85;101229.88;5058885;27;45500;-71
2022/09/05 11:24:56;;;;;;;;;5.20;5.20;;;;;32.49;30.16;101232.94;5073340;27;45476;-68
2022/09/05 11:27:27;;;;;;;;;3.00;2.75;;;;;32.72;29.91;101231.00;5074216;27;45899;-68
2022/09/05 11:30:03;;;;;;;;;2.20;2.20;;;;;32.86;28.74;101224.44;5073840;27;46629;-71
2022/09/05 11:32:44;;;;;;;;;4.60;3.20;;;;;32.99;29.17;101222.41;5055316;27;45419;-69
2022/09/05 11:35:23;;;;;;;;;3.00;3.00;;;;;32.89;28.96;101221.44;5055830;28;45339;-68
2022/09/05 11:37:58;;;;;;;;;5.00;3.00;;;;;32.98;29.20;101225.25;5073651;27;45901;-70
2022/09/05 11:40:42;;;;;;;;;3.00;3.00;;;;;33.18;29.65;101220.88;5073035;27;46219;-70
2022/09/05 11:43:10;;;;;;;;;3.60;3.60;;;;;33.43;29.26;101219.59;5055483;28;45789;-66
2022/09/05 11:46:23;;;;;;;;;5.20;3.80;;;;;33.56;28.69;101206.66;5073933;27;45287;-68
2022/09/05 11:48:52;;;;;;;;;3.00;3.00;;;;;33.79;28.41;101210.97;5074210;27;45352;-68
2022/09/05 11:51:55;;;;;;;;;7.40;3.00;;;;;33.94;27.78;101216.03;5093523;27;46403;-67
2022/09/05 11:54:41;;;;;;;;;2.40;2.40;;;;;34.11;28.07;101211.81;5093770;27;45823;-68
2022/09/05 11:57:30;;;;;;;;;1.80;1.80;;;;;34.26;27.19;101201.41;5095240;27;45950;-68
2022/09/05 12:00:03;;;;;;;;;2.00;2.00;;;;;34.69;27.33;101200.19;5077564;27;45444;-69
2022/09/05 12:02:48;;;;;;;;;3.80;3.00;;;;;35.51;25.21;101201.53;5094144;27;46244;-69
2022/09/05 12:05:51;;;;;;;;;4.80;2.20;;;;;37.05;24.15;101198.91;5075908;27;45487;-66
2022/09/05 12:08:50;;;;;;;;;2.60;2.40;;;;;38.50;22.69;101192.69;5080752;27;45561;-68
2022/09/05 12:11:34;;;;;;;;;3.20;2.40;;;;;39.40;21.60;101183.63;5094207;27;45315;-70
2022/09/05 12:14:24;;;;;;;;;2.00;2.00;;;;;39.84;21.34;101186.75;5093720;27;46575;-66
2022/09/05 12:16:59;;;;;;;;;2.60;2.60;;;;;40.25;20.41;101180.22;5059152;27;45396;-67
2022/09/05 12:19:54;;;;;;;;;4.60;1.60;;;;;40.17;20.13;101169.25;5074889;27;45774;-69
2022/09/05 12:22:27;;;;;;;;;3.00;3.00;;;;;40.35;20.70;101169.88;5061099;27;45414;-67
2022/09/05 12:25:21;;;;;;;;;1.80;1.80;;;;;40.25;19.93;101161.88;5093776;27;46325;-68
2022/09/05 12:27:54;;;;;;;;;3.40;1.60;;;;;40.57;20.12;101156.31;5093525;27;45500;-67
2022/09/05 12:30:29;;;;;;;;;2.00;1.40;;;;;40.80;19.72;101154.44;5093862;27;45438;-66
2022/09/05 12:32:59;;;;;;;;;1.00;1.00;;;;;40.98;19.71;101145.84;5093855;27;45428;-67
2022/09/05 12:35:30;;;;;;;;;2.60;2.60;;;;;40.98;19.09;101145.84;5095460;27;45590;-69
2022/09/05 12:38:11;;;;;;;;;3.40;2.20;;;;;41.01;18.81;101126.25;5097477;27;45531;-66
2022/09/05 12:40:42;;;;;;;;;2.60;2.60;;;;;41.18;19.37;101126.97;5079776;27;45499;-66
2022/09/05 12:43:11;;;;;;;;;3.60;2.80;;;;;41.08;18.98;101107.13;5097587;27;45875;-68